Time;durP1;ratioP1;P1;durP2;ratioP2;P2;SDS_P1;SDS_P2;PMS_P1;PMS_P2;Temp;Humidity;BMP_temperature;BMP_pressure;BME280_temperature;BME280_humidity;BME280_pressure;Samples;Min_cycle;Max_cycle;Signal;HPM_P1;HPM_P2
2021/09/07 00:00:39;;;;;;;2.00;0.87;;;18.90;99.90;;;;;;5094848;28;20039;-83
2021/09/07 00:03:05;;;;;;;0.10;0.10;;;19.10;99.90;;;;;;5090483;28;20036;-83
2021/09/07 00:05:31;;;;;;;1.67;0.33;;;19.20;99.90;;;;;;5092903;28;20035;-83
2021/09/07 00:07:56;;;;;;;0.50;0.30;;;19.20;99.90;;;;;;5095994;28;20039;-83
2021/09/07 00:10:22;;;;;;;0.10;0.10;;;19.10;99.90;;;;;;5098154;28;20109;-82
2021/09/07 00:12:48;;;;;;;6.20;1.37;;;19.10;99.90;;;;;;5102929;28;20405;-83
2021/09/07 00:15:16;;;;;;;0.00;0.00;;;19.00;99.90;;;;;;5098350;27;20023;-83
2021/09/07 00:17:44;;;;;;;0.00;0.00;;;18.90;99.90;;;;;;5098051;27;20118;-83
2021/09/07 00:20:10;;;;;;;0.40;0.40;;;18.80;99.90;;;;;;5096049;28;20028;-83
2021/09/07 00:22:37;;;;;;;0.82;0.47;;;18.90;99.90;;;;;;5099091;27;20990;-83
2021/09/07 00:25:04;;;;;;;0.98;0.52;;;18.90;99.90;;;;;;5095988;28;20028;-82
2021/09/07 00:27:30;;;;;;;0.38;0.38;;;18.80;99.90;;;;;;5104575;27;20035;-82
2021/09/07 00:29:56;;;;;;;0.63;0.60;;;18.90;99.90;;;;;;5100294;28;20528;-83
2021/09/07 00:32:22;;;;;;;0.23;0.23;;;18.80;99.90;;;;;;5100399;27;20307;-83
2021/09/07 00:34:47;;;;;;;0.10;0.10;;;18.80;99.90;;;;;;5098994;27;20059;-83
2021/09/07 00:37:13;;;;;;;0.57;0.57;;;18.60;99.90;;;;;;5101793;28;20023;-84
2021/09/07 00:39:39;;;;;;;1.97;1.20;;;18.40;99.90;;;;;;5095864;28;20019;-83
2021/09/07 00:42:04;;;;;;;0.27;0.23;;;18.50;99.90;;;;;;5098702;27;20042;-84
2021/09/07 00:44:30;;;;;;;0.53;0.40;;;18.40;99.90;;;;;;5099570;28;20548;-84
2021/09/07 00:46:59;;;;;;;0.20;0.20;;;18.40;99.90;;;;;;5103727;27;20039;-83
2021/09/07 00:49:26;;;;;;;0.30;0.30;;;18.50;99.90;;;;;;5096763;27;20028;-83
2021/09/07 00:51:53;;;;;;;0.50;0.50;;;18.50;99.90;;;;;;5103843;28;20042;-83
2021/09/07 00:54:21;;;;;;;0.40;0.20;;;18.40;99.90;;;;;;5099910;28;20077;-83
2021/09/07 00:56:47;;;;;;;1.95;0.70;;;18.30;99.90;;;;;;5100021;27;20036;-83
2021/09/07 00:59:14;;;;;;;0.40;0.40;;;18.20;99.90;;;;;;5103571;28;20034;-83
2021/09/07 01:01:41;;;;;;;0.70;0.35;;;18.30;99.90;;;;;;5101254;27;20791;-83
2021/09/07 01:04:07;;;;;;;0.63;0.57;;;18.00;99.90;;;;;;5105209;28;20070;-84
2021/09/07 01:06:34;;;;;;;0.10;0.10;;;18.00;99.90;;;;;;5106169;27;20083;-84
2021/09/07 01:09:00;;;;;;;0.00;0.00;;;18.00;99.90;;;;;;5098526;28;20052;-84
2021/09/07 01:11:26;;;;;;;0.97;0.67;;;18.00;99.90;;;;;;5097128;27;20585;-83
2021/09/07 01:13:52;;;;;;;0.15;0.15;;;17.80;99.90;;;;;;5103181;28;20061;-82
2021/09/07 01:16:18;;;;;;;0.50;0.50;;;17.80;99.90;;;;;;5097722;27;20161;-83
2021/09/07 01:18:43;;;;;;;0.17;0.17;;;18.00;99.90;;;;;;5103581;27;20549;-83
2021/09/07 01:21:14;;;;;;;0.10;0.10;;;18.30;99.90;;;;;;5102973;27;20075;-84
2021/09/07 01:23:42;;;;;;;0.20;0.20;;;18.20;99.90;;;;;;5099583;27;20020;-82
2021/09/07 01:26:09;;;;;;;0.90;0.50;;;18.20;99.90;;;;;;5102833;28;20110;-83
2021/09/07 01:28:35;;;;;;;0.20;0.20;;;18.20;99.90;;;;;;5102625;28;20519;-83
2021/09/07 01:31:03;;;;;;;0.27;0.27;;;18.20;99.90;;;;;;5098464;27;20110;-82
2021/09/07 01:33:29;;;;;;;0.43;0.43;;;18.10;99.90;;;;;;5100802;27;20353;-83
2021/09/07 01:35:58;;;;;;;0.63;0.20;;;18.10;99.90;;;;;;5102470;28;20549;-83
2021/09/07 01:38:28;;;;;;;0.28;0.10;;;17.80;99.90;;;;;;5100391;28;20054;-83
2021/09/07 01:40:55;;;;;;;0.25;0.20;;;17.70;99.90;;;;;;5097107;27;20136;-82
2021/09/07 01:43:21;;;;;;;0.77;0.77;;;17.80;99.90;;;;;;5094868;28;20023;-82
2021/09/07 01:45:49;;;;;;;0.73;0.57;;;17.90;99.90;;;;;;5100700;27;20046;-82
2021/09/07 01:48:16;;;;;;;0.20;0.20;;;17.80;99.90;;;;;;5100008;28;20045;-82
2021/09/07 01:50:42;;;;;;;0.63;0.43;;;17.70;99.90;;;;;;5099491;27;20039;-83
2021/09/07 01:53:08;;;;;;;0.20;0.20;;;17.50;99.90;;;;;;5103416;27;20751;-83
2021/09/07 01:55:34;;;;;;;0.30;0.30;;;17.60;99.90;;;;;;5095856;28;20100;-82
2021/09/07 01:57:59;;;;;;;0.27;0.27;;;17.50;99.90;;;;;;5100128;27;20045;-83
2021/09/07 02:00:25;;;;;;;0.10;0.10;;;17.40;99.90;;;;;;5099138;28;20110;-83
2021/09/07 02:02:51;;;;;;;0.17;0.17;;;17.30;99.90;;;;;;5098913;27;20039;-83
2021/09/07 02:05:17;;;;;;;0.90;0.83;;;17.40;99.90;;;;;;5104442;27;20027;-83
2021/09/07 02:07:43;;;;;;;1.63;0.47;;;17.40;99.90;;;;;;5096583;28;20302;-83
2021/09/07 02:10:10;;;;;;;0.47;0.47;;;17.40;99.90;;;;;;5098239;27;20032;-83
2021/09/07 02:12:35;;;;;;;0.28;0.28;;;17.40;99.90;;;;;;5094089;27;20494;-84
2021/09/07 02:15:02;;;;;;;0.53;0.53;;;17.40;99.90;;;;;;5096664;28;20042;-82
2021/09/07 02:17:28;;;;;;;0.25;0.25;;;17.40;99.90;;;;;;5100874;27;20040;-83
2021/09/07 02:19:54;;;;;;;0.10;0.10;;;17.60;99.90;;;;;;5101035;28;20027;-82
2021/09/07 02:22:20;;;;;;;0.53;0.50;;;17.50;99.90;;;;;;5095033;27;20024;-83
2021/09/07 02:24:46;;;;;;;0.15;0.15;;;17.70;99.90;;;;;;5099225;28;20397;-83
2021/09/07 02:27:12;;;;;;;0.63;0.47;;;17.70;99.90;;;;;;5093405;28;20040;-84
2021/09/07 02:29:38;;;;;;;0.40;0.20;;;17.80;99.90;;;;;;5090856;28;20030;-83
2021/09/07 02:32:05;;;;;;;2.00;1.50;;;17.90;99.90;;;;;;5103134;27;20046;-83
2021/09/07 02:34:30;;;;;;;9.43;0.38;;;17.90;99.90;;;;;;5102683;28;20054;-82
2021/09/07 02:36:56;;;;;;;5.80;0.77;;;17.80;99.90;;;;;;5101448;27;20031;-83
2021/09/07 02:39:22;;;;;;;0.00;0.00;;;17.80;99.90;;;;;;5100732;27;20450;-83
2021/09/07 02:41:48;;;;;;;0.23;0.23;;;17.80;99.90;;;;;;5099475;27;20147;-83
2021/09/07 02:44:14;;;;;;;0.47;0.30;;;17.70;99.90;;;;;;5087117;28;20059;-82
2021/09/07 02:46:39;;;;;;;0.00;0.00;;;17.60;99.90;;;;;;5089355;28;20114;-83
2021/09/07 02:49:05;;;;;;;2.00;1.13;;;17.60;99.90;;;;;;5088568;28;20056;-83
2021/09/07 02:51:31;;;;;;;0.10;0.10;;;17.50;99.90;;;;;;5095831;28;20546;-83
2021/09/07 02:53:56;;;;;;;0.70;0.50;;;17.50;99.90;;;;;;5096820;28;20040;-82
2021/09/07 02:56:22;;;;;;;0.20;0.20;;;17.40;99.90;;;;;;5091057;28;20042;-84
2021/09/07 02:58:48;;;;;;;0.67;0.57;;;17.30;99.90;;;;;;5092256;28;20073;-83
2021/09/07 03:01:14;;;;;;;1.27;0.63;;;17.20;99.90;;;;;;5103269;28;20490;-84
2021/09/07 03:03:39;;;;;;;0.20;0.20;;;17.20;99.90;;;;;;5099291;27;20907;-83
2021/09/07 03:06:05;;;;;;;0.20;0.10;;;17.30;99.90;;;;;;5094737;27;20085;-83
2021/09/07 03:08:32;;;;;;;0.50;0.50;;;17.30;99.90;;;;;;5091722;28;20448;-84
2021/09/07 03:10:58;;;;;;;0.45;0.45;;;17.40;99.90;;;;;;5093172;28;20034;-83
2021/09/07 03:13:23;;;;;;;0.47;0.27;;;17.30;99.90;;;;;;5094477;28;20023;-83
2021/09/07 03:15:49;;;;;;;0.40;0.40;;;17.20;99.90;;;;;;5096550;27;20032;-83
2021/09/07 03:18:15;;;;;;;0.53;0.53;;;17.60;99.90;;;;;;5100840;27;20023;-83
2021/09/07 03:20:41;;;;;;;0.10;0.10;;;17.80;99.90;;;;;;5101302;27;20046;-83
2021/09/07 03:23:07;;;;;;;0.47;0.47;;;17.80;99.90;;;;;;5099594;27;20660;-83
2021/09/07 03:25:33;;;;;;;2.37;0.53;;;17.50;99.90;;;;;;5101922;27;20035;-83
2021/09/07 03:27:59;;;;;;;0.20;0.20;;;17.40;99.90;;;;;;5101092;27;20085;-84
2021/09/07 03:30:25;;;;;;;0.20;0.20;;;17.50;99.90;;;;;;5098208;27;20047;-83
2021/09/07 03:32:51;;;;;;;0.30;0.30;;;17.60;99.90;;;;;;5099326;28;20031;-83
2021/09/07 03:35:18;;;;;;;2.35;0.77;;;17.60;99.90;;;;;;5100844;28;20039;-84
2021/09/07 03:37:44;;;;;;;0.20;0.20;;;17.60;99.90;;;;;;5101329;28;20036;-83
2021/09/07 03:40:11;;;;;;;0.20;0.20;;;17.40;99.90;;;;;;5096751;28;20032;-82
2021/09/07 03:42:37;;;;;;;0.32;0.32;;;17.60;99.90;;;;;;5102765;28;20039;-84
2021/09/07 03:45:04;;;;;;;2.23;0.60;;;17.80;99.90;;;;;;5096125;28;20108;-83
2021/09/07 03:47:30;;;;;;;2.45;0.40;;;17.90;99.90;;;;;;5095687;28;20455;-82
2021/09/07 03:49:55;;;;;;;0.20;0.20;;;17.60;99.90;;;;;;5094559;27;20324;-83
2021/09/07 03:52:22;;;;;;;2.53;0.73;;;17.70;99.90;;;;;;5101570;28;20099;-83
2021/09/07 03:54:47;;;;;;;0.08;0.08;;;18.10;99.90;;;;;;5101845;28;20102;-83
2021/09/07 03:57:13;;;;;;;0.37;0.37;;;18.30;99.90;;;;;;5094574;28;20110;-82
2021/09/07 03:59:39;;;;;;;1.20;0.70;;;18.20;99.90;;;;;;5095617;28;20048;-83
2021/09/07 04:02:04;;;;;;;0.17;0.17;;;18.30;99.90;;;;;;5100388;28;20031;-83
2021/09/07 04:04:30;;;;;;;0.47;0.47;;;18.30;99.90;;;;;;5101573;28;20024;-82
2021/09/07 04:06:57;;;;;;;0.10;0.10;;;18.20;99.90;;;;;;5094212;28;20048;-83
2021/09/07 04:09:23;;;;;;;0.10;0.10;;;18.20;99.90;;;;;;5095078;28;20498;-84
2021/09/07 04:11:49;;;;;;;0.50;0.30;;;18.00;99.90;;;;;;5096227;28;20112;-83
2021/09/07 04:14:15;;;;;;;0.40;0.40;;;18.00;99.90;;;;;;5095865;28;20028;-83
2021/09/07 04:16:41;;;;;;;0.57;0.35;;;18.20;99.90;;;;;;5096222;28;20032;-83
2021/09/07 04:19:07;;;;;;;0.20;0.20;;;18.20;99.90;;;;;;5097348;28;20039;-82
2021/09/07 04:21:32;;;;;;;0.10;0.10;;;18.50;99.90;;;;;;5094225;28;21721;-82
2021/09/07 04:23:58;;;;;;;0.83;0.50;;;18.50;99.90;;;;;;5096615;28;20030;-83
2021/09/07 04:26:24;;;;;;;0.83;0.47;;;18.60;99.90;;;;;;5096981;28;20036;-84
2021/09/07 04:28:50;;;;;;;0.43;0.43;;;18.50;99.90;;;;;;5092363;28;20217;-82
2021/09/07 04:31:18;;;;;;;0.10;0.10;;;18.70;99.90;;;;;;5097504;28;20103;-84
2021/09/07 04:33:44;;;;;;;0.22;0.22;;;18.80;99.90;;;;;;5095310;28;20059;-84
2021/09/07 04:36:09;;;;;;;1.27;0.40;;;18.60;99.90;;;;;;5093484;28;20051;-84
2021/09/07 04:38:35;;;;;;;11.43;1.40;;;18.50;99.90;;;;;;5097929;28;20024;-84
2021/09/07 04:41:01;;;;;;;0.43;0.43;;;18.10;99.90;;;;;;5095232;28;20035;-83
2021/09/07 04:43:26;;;;;;;0.57;0.57;;;17.70;99.90;;;;;;5102448;28;20042;-83
2021/09/07 04:45:52;;;;;;;0.53;0.53;;;17.40;99.90;;;;;;5092999;28;20054;-84
2021/09/07 04:48:18;;;;;;;0.50;0.50;;;17.30;99.90;;;;;;5095404;28;20032;-83
2021/09/07 04:50:44;;;;;;;0.20;0.20;;;17.20;99.90;;;;;;5100325;28;20313;-83
2021/09/07 04:53:09;;;;;;;1.13;0.50;;;17.00;99.90;;;;;;5100456;28;20076;-84
2021/09/07 04:55:35;;;;;;;0.13;0.13;;;17.00;99.90;;;;;;5085263;28;20062;-83
2021/09/07 04:58:01;;;;;;;4.88;0.75;;;17.20;99.90;;;;;;5097875;28;20032;-84
2021/09/07 05:00:27;;;;;;;0.43;0.43;;;17.20;99.90;;;;;;5097826;28;20031;-84
2021/09/07 05:02:53;;;;;;;0.20;0.20;;;17.10;99.90;;;;;;5101274;28;20032;-83
2021/09/07 05:05:18;;;;;;;0.83;0.50;;;17.10;99.90;;;;;;5100072;28;20126;-84
2021/09/07 05:07:44;;;;;;;0.63;0.47;;;16.90;99.90;;;;;;5099638;28;20044;-85
2021/09/07 05:10:11;;;;;;;0.30;0.30;;;16.80;99.90;;;;;;5103036;28;20023;-84
2021/09/07 05:12:37;;;;;;;0.70;0.13;;;16.50;99.90;;;;;;5099980;28;20142;-83
2021/09/07 05:15:04;;;;;;;0.20;0.20;;;16.50;99.90;;;;;;5107046;27;20465;-79
2021/09/07 05:17:29;;;;;;;0.35;0.35;;;16.60;99.90;;;;;;5101715;28;20088;-79
2021/09/07 05:19:55;;;;;;;0.10;0.10;;;16.70;99.90;;;;;;5099503;27;20545;-79
2021/09/07 05:22:20;;;;;;;0.93;0.60;;;16.60;99.90;;;;;;5098089;28;20535;-80
2021/09/07 05:24:46;;;;;;;0.30;0.30;;;16.60;99.90;;;;;;5098352;28;20042;-80
2021/09/07 05:27:12;;;;;;;0.53;0.33;;;16.50;99.90;;;;;;5100133;28;20501;-82
2021/09/07 05:29:37;;;;;;;0.13;0.13;;;16.60;99.90;;;;;;5100363;28;20410;-80
2021/09/07 05:32:03;;;;;;;0.30;0.23;;;16.70;99.90;;;;;;5102137;27;20048;-80
2021/09/07 05:34:30;;;;;;;0.80;0.80;;;16.80;99.90;;;;;;5104334;27;20030;-80
2021/09/07 05:36:56;;;;;;;0.30;0.30;;;17.10;99.90;;;;;;5115598;27;20303;-81
2021/09/07 05:39:24;;;;;;;1.08;0.47;;;17.40;99.90;;;;;;5091383;27;20065;-81
2021/09/07 05:41:51;;;;;;;0.20;0.20;;;18.00;99.90;;;;;;5095137;28;20118;-80
2021/09/07 05:44:17;;;;;;;0.32;0.32;;;18.80;99.90;;;;;;5096568;28;20726;-81
2021/09/07 05:46:43;;;;;;;0.30;0.25;;;19.00;99.90;;;;;;5097442;28;20059;-81
2021/09/07 05:49:08;;;;;;;0.20;0.20;;;19.30;99.90;;;;;;5099966;28;20678;-81
2021/09/07 05:51:34;;;;;;;0.53;0.20;;;20.10;99.90;;;;;;5100938;27;21868;-80
2021/09/07 05:54:00;;;;;;;0.10;0.10;;;20.50;99.90;;;;;;5098926;27;20033;-81
2021/09/07 05:56:25;;;;;;;0.57;0.57;;;21.10;99.90;;;;;;5093283;28;20035;-81
2021/09/07 05:58:51;;;;;;;0.60;0.40;;;21.70;99.90;;;;;;5096779;28;20118;-79
2021/09/07 06:01:17;;;;;;;0.33;0.33;;;21.30;99.90;;;;;;5097454;28;20963;-81
2021/09/07 06:03:42;;;;;;;0.10;0.10;;;20.80;99.90;;;;;;5094378;28;20042;-81
2021/09/07 06:06:08;;;;;;;0.17;0.17;;;20.60;99.90;;;;;;5097695;28;20774;-81
2021/09/07 06:08:34;;;;;;;0.30;0.30;;;20.90;99.90;;;;;;5098304;27;20065;-81
2021/09/07 06:11:00;;;;;;;0.20;0.20;;;21.10;99.90;;;;;;5097049;28;20031;-81
2021/09/07 06:13:26;;;;;;;0.43;0.33;;;21.50;99.40;;;;;;5099853;28;20133;-81
2021/09/07 06:15:52;;;;;;;0.87;0.40;;;22.60;99.90;;;;;;5098567;28;20115;-81
2021/09/07 06:18:17;;;;;;;0.32;0.30;;;22.90;96.50;;;;;;5103736;27;20026;-80
2021/09/07 06:20:43;;;;;;;0.10;0.10;;;22.30;97.20;;;;;;5097203;28;20529;-80
2021/09/07 06:23:10;;;;;;;0.00;0.00;;;22.80;97.00;;;;;;5101807;28;20058;-81
2021/09/07 06:25:35;;;;;;;;;;;23.40;95.20;;;;;;5104665;27;20282;-81
2021/09/07 06:28:01;;;;;;;0.45;0.45;;;24.70;91.50;;;;;;5098737;28;20442;-84
2021/09/07 06:30:27;;;;;;;0.00;0.00;;;26.60;84.20;;;;;;5098712;27;20047;-83
2021/09/07 06:32:52;;;;;;;0.45;0.45;;;27.80;79.60;;;;;;5094527;28;20078;-83
2021/09/07 06:35:19;;;;;;;0.17;0.17;;;28.20;76.40;;;;;;5096563;28;20562;-82
2021/09/07 06:37:44;;;;;;;0.55;0.20;;;28.40;74.00;;;;;;5101621;27;20761;-84
2021/09/07 06:40:11;;;;;;;0.20;0.20;;;28.70;71.40;;;;;;5098291;28;20031;-83
2021/09/07 06:42:37;;;;;;;7.15;1.75;;;28.80;69.20;;;;;;5098021;27;20052;-82
2021/09/07 06:45:06;;;;;;;2.10;1.08;;;26.80;72.10;;;;;;5095945;28;20024;-82
2021/09/07 06:47:32;;;;;;;0.08;0.08;;;25.90;77.20;;;;;;5098546;28;20043;-83
2021/09/07 06:50:00;;;;;;;0.10;0.10;;;26.50;74.90;;;;;;5095820;28;20028;-83
2021/09/07 06:52:29;;;;;;;0.75;0.75;;;26.20;73.60;;;;;;5095825;28;20639;-83
2021/09/07 06:54:55;;;;;;;0.43;0.43;;;26.80;72.10;;;;;;5095656;28;20077;-83
2021/09/07 06:57:21;;;;;;;0.45;0.40;;;27.10;71.20;;;;;;5092379;28;20805;-83
2021/09/07 06:59:46;;;;;;;0.27;0.27;;;26.40;72.60;;;;;;5093813;28;20031;-82
2021/09/07 07:02:12;;;;;;;0.90;0.50;;;26.10;72.60;;;;;;5096722;28;20118;-83
2021/09/07 07:04:38;;;;;;;0.10;0.10;;;26.10;73.40;;;;;;5098568;28;20618;-82
2021/09/07 07:07:04;;;;;;;0.30;0.30;;;26.10;73.90;;;;;;5095920;28;20044;-82
2021/09/07 07:09:29;;;;;;;1.65;1.17;;;25.10;75.60;;;;;;5095833;28;20038;-82
2021/09/07 07:11:55;;;;;;;0.13;0.13;;;25.60;75.90;;;;;;5096093;28;20049;-83
2021/09/07 07:14:21;;;;;;;0.93;0.87;;;26.40;72.10;;;;;;5097486;28;20019;-82
2021/09/07 07:16:50;;;;;;;;;;;28.40;67.00;;;;;;5098050;28;20383;-82
2021/09/07 07:19:16;;;;;;;0.98;0.60;;;29.30;64.90;;;;;;5096536;28;19966;-83
2021/09/07 07:21:42;;;;;;;0.35;0.35;;;28.80;60.80;;;;;;5092728;28;20126;-83
2021/09/07 07:24:08;;;;;;;0.43;0.40;;;28.90;62.40;;;;;;5092803;28;20036;-82
2021/09/07 07:26:34;;;;;;;0.20;0.20;;;29.90;72.40;;;;;;5100437;28;20036;-83
2021/09/07 07:28:59;;;;;;;0.10;0.10;;;29.50;58.60;;;;;;5091083;28;20020;-82
2021/09/07 07:31:25;;;;;;;0.10;0.10;;;28.90;59.80;;;;;;5094193;28;20035;-82
2021/09/07 07:33:51;;;;;;;0.00;0.00;;;29.20;60.20;;;;;;5094521;28;20134;-82
2021/09/07 07:36:17;;;;;;;0.57;0.57;;;28.80;57.20;;;;;;5097124;28;20054;-83
2021/09/07 07:38:42;;;;;;;0.93;0.68;;;28.40;59.80;;;;;;5098502;28;20043;-81
2021/09/07 07:41:08;;;;;;;1.20;1.10;;;27.30;62.80;;;;;;5099030;28;20035;-83
2021/09/07 07:43:36;;;;;;;0.50;0.50;;;26.70;63.90;;;;;;5098140;28;20031;-82
2021/09/07 07:46:03;;;;;;;2.67;1.55;;;27.40;63.70;;;;;;5095046;28;20119;-82
2021/09/07 07:48:29;;;;;;;0.45;0.45;;;27.90;61.70;;;;;;5096103;28;20028;-82
2021/09/07 07:50:55;;;;;;;0.90;0.70;;;28.80;60.30;;;;;;5097239;28;20031;-82
2021/09/07 07:53:20;;;;;;;0.20;0.20;;;28.50;59.30;;;;;;5097659;28;20045;-83
2021/09/07 07:55:46;;;;;;;1.83;0.55;;;29.60;56.30;;;;;;5097343;28;20032;-82
2021/09/07 07:58:12;;;;;;;4.03;1.02;;;28.90;55.30;;;;;;5093745;28;20085;-83
2021/09/07 08:00:37;;;;;;;0.00;0.00;;;29.10;55.70;;;;;;5096654;28;20040;-81
2021/09/07 08:03:03;;;;;;;2.03;0.43;;;29.60;56.80;;;;;;5092778;28;20122;-83
2021/09/07 08:05:29;;;;;;;0.05;0.05;;;30.40;49.90;;;;;;5096745;28;20032;-82
2021/09/07 08:07:54;;;;;;;3.63;0.80;;;31.30;49.10;;;;;;5095225;28;20058;-82
2021/09/07 08:10:20;;;;;;;0.20;0.20;;;32.40;45.00;;;;;;5097025;28;20056;-83
2021/09/07 08:12:46;;;;;;;0.35;0.35;;;31.50;45.20;;;;;;5095634;28;20028;-82
2021/09/07 08:15:12;;;;;;;1.08;0.95;;;30.90;47.10;;;;;;5090242;28;20028;-83
2021/09/07 08:17:38;;;;;;;0.50;0.28;;;30.70;48.90;;;;;;5096447;28;20019;-83
2021/09/07 08:20:05;;;;;;;0.10;0.10;;;30.40;45.80;;;;;;5093244;28;20089;-82
2021/09/07 08:22:30;;;;;;;0.10;0.10;;;30.30;47.70;;;;;;5095979;28;20051;-83
2021/09/07 08:24:56;;;;;;;0.20;0.10;;;31.30;44.10;;;;;;5095981;28;20570;-83
2021/09/07 08:27:21;;;;;;;0.00;0.00;;;32.30;41.40;;;;;;5099741;28;20405;-84
2021/09/07 08:29:47;;;;;;;0.00;0.00;;;32.90;37.00;;;;;;5094184;28;20102;-84
2021/09/07 08:32:13;;;;;;;0.30;0.30;;;33.90;35.40;;;;;;5088034;28;20849;-83
2021/09/07 08:34:39;;;;;;;;;;;33.20;35.30;;;;;;5102203;28;20100;-83
2021/09/07 08:37:06;;;;;;;0.25;0.25;;;33.30;36.00;;;;;;5103214;28;20381;-82
2021/09/07 08:39:32;;;;;;;0.10;0.10;;;33.00;34.30;;;;;;5096206;28;20031;-82
2021/09/07 08:41:58;;;;;;;8.02;2.15;;;34.20;32.70;;;;;;5099416;28;20065;-83
2021/09/07 08:44:25;;;;;;;0.05;0.05;;;32.60;34.10;;;;;;5102860;28;20034;-83
2021/09/07 08:46:51;;;;;;;0.08;0.08;;;32.40;36.40;;;;;;5103723;28;20114;-83
2021/09/07 08:49:19;;;;;;;0.30;0.30;;;33.90;32.40;;;;;;5105129;28;20028;-83
2021/09/07 08:51:46;;;;;;;0.10;0.10;;;33.40;31.70;;;;;;5100391;28;20047;-83
2021/09/07 08:54:13;;;;;;;10.25;1.98;;;32.80;33.40;;;;;;5104651;28;20676;-77
2021/09/07 08:56:39;;;;;;;0.00;0.00;;;34.00;31.40;;;;;;5103903;28;20594;-78
2021/09/07 08:59:06;;;;;;;0.00;0.00;;;34.90;29.60;;;;;;5100029;28;20034;-78
2021/09/07 09:01:41;;;;;;;0.40;0.40;;;34.20;26.20;;;;;;5102966;28;20058;-77
2021/09/07 09:04:25;;;;;;;0.10;0.10;;;32.90;31.00;;;;;;5096411;28;20028;-85
2021/09/07 09:06:51;;;;;;;0.55;0.55;;;32.70;29.50;;;;;;5101879;28;20130;-87
2021/09/07 09:09:17;;;;;;;;;;;31.70;34.00;;;;;;5105071;28;20041;-87
2021/09/07 09:11:57;;;;;;;0.20;0.20;;;34.40;29.20;;;;;;5104595;28;19998;-87
2021/09/07 09:14:36;;;;;;;0.20;0.20;;;32.80;28.80;;;;;;5098832;28;20028;-85
2021/09/07 09:17:17;;;;;;;0.32;0.30;;;32.10;31.20;;;;;;5099257;28;20034;-87
2021/09/07 09:19:51;;;;;;;0.25;0.25;;;32.50;32.00;;;;;;5096778;28;20547;-87
2021/09/07 09:22:17;;;;;;;2.08;0.40;;;32.80;29.60;;;;;;5102493;28;20054;-88
2021/09/07 09:24:43;;;;;;;0.88;0.85;;;32.20;29.70;;;;;;5098458;28;20032;-87
2021/09/07 09:27:09;;;;;;;5.38;0.95;;;31.10;35.90;;;;;;5097899;27;20036;-88
2021/09/07 09:29:37;;;;;;;0.25;0.17;;;32.80;32.70;;;;;;5105157;28;20395;-88
2021/09/07 09:32:04;;;;;;;0.10;0.08;;;31.40;34.30;;;;;;5101207;28;20039;-88
2021/09/07 09:34:32;;;;;;;0.10;0.10;;;30.50;37.20;;;;;;5091882;28;20101;-89
2021/09/07 09:37:12;;;;;;;0.40;0.20;;;32.00;33.40;;;;;;5104355;28;20046;-88
2021/09/07 09:39:50;;;;;;;0.17;0.17;;;32.70;32.00;;;;;;5101993;28;20141;-90
2021/09/07 09:42:29;;;;;;;0.13;0.13;;;31.40;33.80;;;;;;5097084;28;20036;-89
2021/09/07 09:45:06;;;;;;;0.68;0.28;;;30.90;35.40;;;;;;5099815;28;20023;-87
2021/09/07 09:47:39;;;;;;;3.75;0.55;;;32.00;33.00;;;;;;5099897;28;20111;-87
2021/09/07 09:50:05;;;;;;;0.20;0.20;;;31.20;34.90;;;;;;5087286;28;20028;-87
2021/09/07 09:52:36;;;;;;;0.65;0.65;;;30.90;36.50;;;;;;5100222;28;20030;-87
2021/09/07 09:55:05;;;;;;;0.60;0.47;;;31.50;34.20;;;;;;5102569;28;20108;-88
2021/09/07 09:57:32;;;;;;;1.52;0.88;;;31.70;33.20;;;;;;5090826;28;20024;-87
2021/09/07 09:59:59;;;;;;;0.03;0.03;;;31.10;33.80;;;;;;5095562;27;20036;-88
2021/09/07 10:02:26;;;;;;;1.55;0.85;;;32.10;32.40;;;;;;5099728;27;20069;-88
2021/09/07 10:04:52;;;;;;;0.28;0.28;;;32.10;32.50;;;;;;5096728;27;20023;-87
2021/09/07 10:07:20;;;;;;;0.47;0.28;;;31.30;32.80;;;;;;5098945;28;20100;-88
2021/09/07 10:09:48;;;;;;;1.65;0.10;;;33.60;29.70;;;;;;5097598;28;20050;-86
2021/09/07 10:12:28;;;;;;;0.22;0.22;;;32.70;30.90;;;;;;5096907;28;20119;-87
2021/09/07 10:15:04;;;;;;;1.63;0.45;;;33.80;28.90;;;;;;5097917;28;20074;-87
2021/09/07 10:26:01;;;;;;;0.00;0.00;;;30.80;32.90;;;;;;5102049;28;20051;-87
2021/09/07 10:28:44;;;;;;;0.10;0.10;;;30.20;35.90;;;;;;5102285;28;20053;-88
2021/09/07 10:31:22;;;;;;;0.38;0.38;;;31.40;30.90;;;;;;5090111;28;20036;-86
2021/09/07 10:34:00;;;;;;;0.22;0.22;;;30.40;37.80;;;;;;5090947;28;20135;-87
2021/09/07 10:36:30;;;;;;;0.90;0.90;;;30.90;35.20;;;;;;5096344;28;20043;-88
2021/09/07 10:38:59;;;;;;;3.10;1.40;;;31.20;37.60;;;;;;5099354;28;20718;-87
2021/09/07 10:41:34;;;;;;;0.15;0.15;;;31.80;35.90;;;;;;5102377;28;20118;-87
2021/09/07 10:44:01;;;;;;;1.88;0.75;;;32.10;34.20;;;;;;5087485;28;20032;-88
2021/09/07 10:47:12;;;;;;;1.17;0.73;;;30.60;36.40;;;;;;5087873;28;20534;-88
2021/09/07 10:49:52;;;;;;;0.35;0.10;;;29.30;40.30;;;;;;5059237;28;20567;-87
2021/09/07 10:52:19;;;;;;;0.75;0.20;;;29.60;38.40;;;;;;5061923;28;20060;-86
2021/09/07 10:55:07;;;;;;;0.17;0.15;;;29.70;38.80;;;;;;5058432;28;20064;-88
2021/09/07 10:57:35;;;;;;;0.00;0.00;;;29.60;39.60;;;;;;5058886;28;20060;-87
2021/09/07 11:00:16;;;;;;;0.10;0.10;;;30.00;37.50;;;;;;5058470;28;20090;-86
2021/09/07 11:02:52;;;;;;;3.95;0.10;;;29.60;40.40;;;;;;5061135;28;20079;-88
2021/09/07 11:05:32;;;;;;;0.28;0.28;;;29.40;40.80;;;;;;5058963;28;20033;-88
2021/09/07 11:08:14;;;;;;;1.33;0.60;;;29.30;40.60;;;;;;5044125;28;20775;-87
2021/09/07 11:10:53;;;;;;;6.55;0.50;;;29.20;42.20;;;;;;5042608;28;20037;-87
2021/09/07 11:13:25;;;;;;;0.10;0.00;;;29.60;41.20;;;;;;5061455;28;20056;-87
2021/09/07 11:15:54;;;;;;;0.00;0.00;;;29.70;40.00;;;;;;5060514;28;20033;-88
2021/09/07 11:18:22;;;;;;;0.60;0.60;;;29.90;40.30;;;;;;5058376;28;20733;-87
2021/09/07 11:20:49;;;;;;;0.28;0.17;;;29.50;41.80;;;;;;5058002;28;20041;-87
2021/09/07 11:23:21;;;;;;;0.10;0.10;;;28.70;42.70;;;;;;5072841;28;20043;-86
2021/09/07 11:26:11;;;;;;;0.65;0.22;;;29.00;41.50;;;;;;5086523;28;20024;-87
2021/09/07 11:28:38;;;;;;;0.10;0.10;;;29.00;42.70;;;;;;5101042;28;20183;-86
2021/09/07 11:31:06;;;;;;;0.10;0.10;;;29.10;42.00;;;;;;5100105;28;20047;-87
2021/09/07 11:33:37;;;;;;;0.30;0.28;;;29.10;42.10;;;;;;5092800;28;20089;-87
2021/09/07 11:36:11;;;;;;;0.05;0.05;;;29.20;42.70;;;;;;5091747;28;20027;-87
2021/09/07 11:38:45;;;;;;;0.38;0.38;;;29.50;42.40;;;;;;5097557;28;20071;-87
2021/09/07 11:41:14;;;;;;;0.15;0.15;;;29.00;43.00;;;;;;5112224;27;20032;-86
2021/09/07 11:43:44;;;;;;;0.30;0.30;;;28.30;44.70;;;;;;5101711;28;20070;-87
2021/09/07 11:46:18;;;;;;;0.08;0.03;;;28.20;46.50;;;;;;5099937;28;20649;-86
2021/09/07 11:48:49;;;;;;;1.27;0.30;;;28.60;45.80;;;;;;5097853;28;20567;-87
2021/09/07 11:51:36;;;;;;;0.10;0.10;;;28.40;46.70;;;;;;5096067;28;20036;-87
2021/09/07 11:54:05;;;;;;;0.15;0.15;;;28.70;46.00;;;;;;5090995;28;20039;-86
2021/09/07 11:56:37;;;;;;;0.10;0.10;;;28.40;46.70;;;;;;5097648;28;20030;-86
2021/09/07 11:59:16;;;;;;;0.50;0.50;;;28.00;46.60;;;;;;5100795;28;20488;-87
2021/09/07 12:01:44;;;;;;;0.40;0.40;;;28.20;46.80;;;;;;5101774;28;20204;-87
2021/09/07 12:04:14;;;;;;;0.40;0.10;;;28.30;46.80;;;;;;5099947;28;20038;-87
2021/09/07 12:06:42;;;;;;;0.20;0.20;;;28.90;46.40;;;;;;5097513;28;20070;-86
2021/09/07 12:09:20;;;;;;;0.00;0.00;;;28.90;45.60;;;;;;5100300;28;20050;-86
2021/09/07 12:11:48;;;;;;;0.05;0.05;;;28.60;46.00;;;;;;5100879;28;20039;-87
2021/09/07 12:14:19;;;;;;;0.17;0.17;;;28.50;46.80;;;;;;5089828;28;20631;-88
2021/09/07 12:16:52;;;;;;;0.10;0.10;;;28.50;46.70;;;;;;5106297;28;20097;-87
2021/09/07 12:19:36;;;;;;;0.30;0.30;;;28.70;46.60;;;;;;5110344;27;20575;-87
2021/09/07 12:22:23;;;;;;;0.22;0.22;;;28.50;47.00;;;;;;5092007;28;20040;-87
2021/09/07 12:25:14;;;;;;;0.10;0.10;;;28.70;46.30;;;;;;5093420;28;20066;-86
2021/09/07 12:27:39;;;;;;;0.30;0.30;;;28.60;59.00;;;;;;5100553;28;20077;-88
2021/09/07 12:30:10;;;;;;;0.38;0.38;;;28.80;46.80;;;;;;5098352;28;20030;-87
2021/09/07 12:32:49;;;;;;;0.55;0.40;;;28.70;46.90;;;;;;5092259;28;20035;-87
2021/09/07 12:35:35;;;;;;;0.15;0.15;;;28.50;47.20;;;;;;5102598;28;20028;-87
2021/09/07 12:38:03;;;;;;;0.30;0.30;;;28.60;46.90;;;;;;5089682;28;20059;-86
2021/09/07 12:40:29;;;;;;;0.35;0.35;;;28.70;46.90;;;;;;5103796;28;20119;-87
2021/09/07 12:42:55;;;;;;;;;;;28.50;47.50;;;;;;5103363;28;20031;-87
2021/09/07 12:45:22;;;;;;;0.00;0.00;;;28.40;47.90;;;;;;5101167;28;19911;-87
2021/09/07 12:47:47;;;;;;;0.08;0.08;;;28.70;47.60;;;;;;5101171;28;20039;-87
2021/09/07 12:50:13;;;;;;;0.30;0.10;;;29.10;46.20;;;;;;5102672;28;20020;-88
2021/09/07 12:52:39;;;;;;;0.10;0.10;;;29.10;45.90;;;;;;5104595;28;20110;-87
2021/09/07 12:55:05;;;;;;;0.00;0.00;;;29.40;45.90;;;;;;5103341;28;20027;-87
2021/09/07 12:57:31;;;;;;;0.28;0.22;;;29.10;45.30;;;;;;5100834;28;20542;-87
2021/09/07 12:59:56;;;;;;;0.13;0.13;;;29.00;47.50;;;;;;5101045;28;20032;-87